Lecanto, FL (34461)

2:51 AM EDT on October 23, 2014 (GMT -0400)
Citrus County Mosquito Control | Change Station
CLOSE
Current Station
Personal Weather Station
Location: Lecanto, FL
Elevation: 102 ft
Nearby Weather Stations

Elev 102 ft 28.88 °N, 82.49 °W | Updated 18 seconds ago

Clear
Clear
58.2 °F
Feels Like 58.2 °F
N
0.0
Wind Variable Wind from NNE
Gusts 0.0 mph

Today
High -- | Low -- °F
--% Chance of Precip.
Yesterday
High -- | Low -- °F
Precip. -- in
7:35 AM 6:52 PM
Waning Crescent, 0% visible
Pressure 30.01 in
Visibility 10.0 miles
Clouds Clear
Dew Point 54 °F
Humidity 87%
Rainfall 0.00 in
Snow Depth Not available.
UV 0 out of 12
Pollen 6.70 out of 12
Air Quality Not available.
Flu Activity Local Activity
METAR KCGC 230635Z AUTO 00000KT 10SM CLR 14/11 A3001 RMK AO2 PWINO

More Conditions Fewer Conditions

Pressure 30.01 in
Visibility 10.0 miles
Clouds Clear
Dew Point 54 °F
Humidity 87%
Rainfall 0.00 in
Snow Depth Not available.
UV 0 out of 12
Pollen 6.70 out of 12
Air Quality Not available.
Flu Activity Local Activity
METAR KCGC 230635Z AUTO 00000KT 10SM CLR 14/11 A3001 RMK AO2 PWINO

More Conditions Fewer Conditions

10-Day Weather Forecast

Almanac

Astronomy

Oct. 23, 2014 Rise Set
Actual Time 7:35 AM EDT 6:52 PM EDT
Civil Twilight 7:11 AM EDT 7:16 PM EDT
Nautical Twilight 6:44 AM EDT 7:43 PM EDT
Astronomical Twilight 6:16 AM EDT 8:11 PM EDT
Moon 7:16 AM EDT 6:52 PM EDT
Length of Visible Light 12h 04m
Length of Day
11h 16m
Tomorrow will be 1m 35s shorter.
Waning Crescent, 0% of the Moon is Illuminated
Today
Waning Crescent
Oct 23
New
Oct 30
First Quarter
Nov 6
Full
Nov 14
Last Quarter

Today's Extremes

State Highs State Lows

Community

WunderPhotos

Upload Photos

1,764,194 photos uploaded!

Nearby

Snow Depth

Station Depth Elevation
No new snow has been reported.

Earthquake Activity

City Distance Mag. Time & Date
No recent earthquake activity has been reported nearby.
Minimum magnitude displayed is 2.5.

Coastal Water Temperatures

Place Temperature
No Stations Reporting

Nearby Weather Stations